Manage, Belgium
Current Conditions -  °F | °C
As of 2:20 AM on Thursday 27 Nov 2014 (Local Time) from EBCI Reporting Station
Broken Clouds Broken Clouds  
Wind Chill: 45°   Ceiling: 3200
Heat Index: 48°   Visibility: 4mi
Dew Point: 46°   Wind: 8mph
Humidity: 93%   Direction: 150°SSE
Pressure: 29.8"   Gusts: NA
Location:  50.5°N, 4.24°E
Report Text: EBCI 270120Z 15007KT 7000 SCT006 BKN032 09/08 Q1009 NOSIG
Loading
Personal Weather Stations






























Interactive Weather Map New forecast layout! Learn more

10-Day Weather Forecast

Advertisements
Track Severe Weather on mobile